Hishou Maru — JM6643 — position and weather

sailwx.info

Track history (hours):
 
Tides and Currents Weather Stations Pressure Air Temp Water Temp Dewpoint Dewpoint Depression Visibility Wind Speed Wind Dir Waves Ship Positions

Hishou Maru

Last reported at 2017-Nov-20 00:30 UTC. Time now 2017-Nov-21 23:11 UTC.
Position N 34°36' E 135°11'.

Length 76 m; draft 4.1 m.

Type: Cargo ship. MMSI: 431600889.

Date/timePositionNaut miles runAvg speedWind from/ knotsBaromVisibWave heightAir tempDewpointWater temp
2017-Nov-20 00:30N 34°36' E 135°11'611.1
2017-Nov-20 00:00N 34°35' E 135°04'4 7.5
2017-Nov-19 23:30N 34°37' E 135°01'4 8.0
2017-Nov-19 22:59N 34°36' E 134°56'5 8.9
2017-Nov-19 22:27N 34°39' E 134°51'3 0.2
2017-Nov-19 08:47N 34°37' E 134°54'310.9
2017-Nov-19 08:30N 34°37' E 134°57'510.4
2017-Nov-19 08:00N 34°36' E 135°03'611.3
2017-Nov-19 07:30N 34°37' E 135°10'5 9.7
2017-Nov-19 07:01N 34°40' E 135°15'3 4.7
2017-Nov-19 06:28N 34°42' E 135°15'0 0.0
2017-Nov-19 05:52N 34°42' E 135°15'0 0.0
2017-Nov-19 05:28N 34°42' E 135°15'0 0.0
2017-Nov-19 04:58N 34°42' E 135°15'0 0.0
2017-Nov-19 04:28N 34°42' E 135°15'0 0.0
2017-Nov-19 03:58N 34°42' E 135°15'0 0.0
2017-Nov-19 03:28N 34°42' E 135°15'0 0.0
2017-Nov-19 02:58N 34°42' E 135°15'0 0.0
2017-Nov-19 02:28N 34°42' E 135°15'0 0.0
2017-Nov-19 01:58N 34°42' E 135°15'0 0.0
2017-Nov-19 01:28N 34°42' E 135°15'0 0.0
2017-Nov-19 00:58N 34°42' E 135°15'0 0.0
2017-Nov-19 00:28N 34°42' E 135°15'0 0.0
2017-Nov-18 23:58N 34°42' E 135°15'0 0.0
2017-Nov-18 23:28N 34°42' E 135°15'0 0.0
2017-Nov-18 22:58N 34°42' E 135°15'0 0.7
2017-Nov-18 22:31N 34°42' E 135°15'0 0.6
2017-Nov-18 21:55N 34°42' E 135°15'0 0.0
2017-Nov-18 21:25N 34°42' E 135°15'0 0.1
2017-Nov-18 20:55N 34°42' E 135°15'0 0.1
2017-Nov-18 20:25N 34°42' E 135°15'0 0.0
2017-Nov-18 19:55N 34°42' E 135°15'0 0.0
2017-Nov-18 19:25N 34°42' E 135°15'0 0.0
2017-Nov-18 18:55N 34°42' E 135°15'0 0.0
2017-Nov-18 18:25N 34°42' E 135°15'0 0.0
2017-Nov-18 17:55N 34°42' E 135°15'0 0.0
2017-Nov-18 17:25N 34°42' E 135°15'0 0.0
2017-Nov-18 16:55N 34°42' E 135°15'0 0.1
2017-Nov-18 16:25N 34°42' E 135°15'0 0.1
2017-Nov-18 15:55N 34°42' E 135°15'0 0.0
2017-Nov-18 15:19N 34°42' E 135°15'0 0.0
2017-Nov-18 14:55N 34°42' E 135°15'0 0.0
2017-Nov-18 14:19N 34°42' E 135°15'0 0.0
2017-Nov-18 13:55N 34°42' E 135°15'0 0.0
2017-Nov-18 13:19N 34°42' E 135°15'0 0.0
2017-Nov-18 12:49N 34°42' E 135°15'0 0.0
2017-Nov-18 12:25N 34°42' E 135°15'1 2.4
2017-Nov-18 12:00N 34°41' E 135°15'4 7.7
2017-Nov-18 11:30N 34°37' E 135°14'510.5
2017-Nov-18 11:00N 34°36' E 135°07'5 9.3
2017-Nov-18 10:28N 34°37' E 135°02'5 9.0
2017-Nov-18 09:58N 34°36' E 134°56'710.0
2017-Nov-18 09:17N 34°40' E 134°49'1 0.0
2017-Nov-16 21:50N 34°40' E 134°48'612.8
2017-Nov-16 21:22N 34°37' E 134°54'513.9
2017-Nov-16 20:59N 34°38' E 135°00'612.4
2017-Nov-16 20:30N 34°37' E 135°08'611.7
2017-Nov-16 20:00N 34°37' E 135°15'510.0
2017-Nov-16 19:30N 34°42' E 135°15'0 0.1
2017-Nov-16 18:56N 34°42' E 135°15'0 0.0
2017-Nov-16 18:26N 34°42' E 135°15'0 0.0
2017-Nov-16 17:56N 34°42' E 135°15'0 0.0
2017-Nov-16 17:26N 34°42' E 135°15'0 0.0
2017-Nov-16 16:56N 34°42' E 135°15'0 0.0
2017-Nov-16 16:26N 34°42' E 135°15'0 0.0
2017-Nov-16 15:56N 34°42' E 135°15'0 0.0
2017-Nov-16 15:20N 34°42' E 135°15'0 0.0
2017-Nov-16 14:56N 34°42' E 135°15'0 0.0
2017-Nov-16 14:26N 34°42' E 135°15'0 0.0
2017-Nov-16 13:56N 34°42' E 135°15'0 0.0
2017-Nov-16 13:26N 34°42' E 135°15'0 0.0
2017-Nov-16 12:56N 34°42' E 135°15'0 0.0
2017-Nov-16 12:26N 34°42' E 135°15'0 0.0
2017-Nov-16 11:50N 34°42' E 135°15'0 0.0
2017-Nov-16 11:20N 34°42' E 135°15'0 0.0
2017-Nov-16 10:56N 34°42' E 135°15'0 0.0
2017-Nov-16 10:26N 34°42' E 135°15'0 0.0
2017-Nov-16 09:44N 34°42' E 135°15'0 0.0
2017-Nov-16 09:26N 34°42' E 135°15'0 0.0
2017-Nov-16 08:56N 34°42' E 135°15'0 0.0
2017-Nov-16 08:26N 34°42' E 135°15'0 0.0
2017-Nov-16 07:44N 34°42' E 135°15'0 0.0
2017-Nov-16 07:26N 34°42' E 135°15'0 0.0
2017-Nov-16 06:59N 34°42' E 135°15'0 0.8
2017-Nov-16 06:30N 34°42' E 135°15'1 1.3
2017-Nov-16 06:00N 34°41' E 135°15'4 8.4
2017-Nov-16 05:29N 34°37' E 135°14'612.0
2017-Nov-16 05:00N 34°35' E 135°07'913.3
2017-Nov-16 04:18N 34°36' E 134°56'613.3
2017-Nov-16 03:50N 34°40' E 134°50'2 0.1
2017-Nov-14 23:09N 34°41' E 134°48'0 0.2
2017-Nov-14 22:57N 34°41' E 134°48'0 0.1
2017-Nov-14 22:21N 34°41' E 134°48'0 0.0
2017-Nov-14 21:57N 34°41' E 134°48'0 0.0
2017-Nov-14 20:15N 34°41' E 134°48'0 0.0
2017-Nov-14 19:51N 34°41' E 134°48'0 0.0
2017-Nov-14 19:27N 34°41' E 134°48'0 0.0
2017-Nov-14 18:57N 34°41' E 134°48'0 0.1
2017-Nov-14 18:21N 34°41' E 134°48'6 9.6
2017-Nov-14 17:43N 34°37' E 134°54'311.7
2017-Nov-14 17:29N 34°38' E 134°57'510.3
2017-Nov-14 17:00N 34°37' E 135°03'611.6
2017-Nov-14 16:30N 34°37' E 135°10'510.1
2017-Nov-14 16:00N 34°39' E 135°15'3 4.0
2017-Nov-14 15:14N 34°42' E 135°15'0 0.0
2017-Nov-14 14:56N 34°42' E 135°15'0 0.0
2017-Nov-14 14:14N 34°42' E 135°15'0 0.0
2017-Nov-14 13:56N 34°42' E 135°15'0 0.0
2017-Nov-14 13:26N 34°42' E 135°15'0 0.0
2017-Nov-14 12:56N 34°42' E 135°15'0 0.0
2017-Nov-14 12:20N 34°42' E 135°15'0 0.0
2017-Nov-14 11:20N 34°42' E 135°15'0 0.0
2017-Nov-14 10:56N 34°42' E 135°15'0 0.0
2017-Nov-14 10:14N 34°42' E 135°15'0 0.0
2017-Nov-14 09:56N 34°42' E 135°15'0 0.0
2017-Nov-14 09:20N 34°42' E 135°15'0 0.0
2017-Nov-14 08:56N 34°42' E 135°15'0 0.0
2017-Nov-14 08:20N 34°42' E 135°15'0 0.0
2017-Nov-14 07:56N 34°42' E 135°15'0 0.0
2017-Nov-14 07:26N 34°42' E 135°15'0 0.0
2017-Nov-14 06:50N 34°42' E 135°15'0 0.0
2017-Nov-14 06:26N 34°42' E 135°15'3 5.9
2017-Nov-14 06:00N 34°40' E 135°15'5 9.5
2017-Nov-14 05:30N 34°36' E 135°12'611.6
2017-Nov-14 05:00N 34°35' E 135°05'611.6
2017-Nov-14 04:27N 34°37' E 134°57'711.8
2017-Nov-14 03:51N 34°40' E 134°50'6 0.2
2017-Nov-12 23:40N 34°37' E 134°57'411.8
2017-Nov-12 23:22N 34°37' E 135°01'410.9
2017-Nov-12 23:00N 34°37' E 135°06'611.6
2017-Nov-12 22:30N 34°40' E 135°12'1 1.4
2017-Nov-12 21:59N 34°41' E 135°12'0 0.0
2017-Nov-12 21:29N 34°41' E 135°12'0 0.0
2017-Nov-12 20:59N 34°41' E 135°12'0 0.0
2017-Nov-12 20:29N 34°41' E 135°12'0 0.0
2017-Nov-12 19:59N 34°41' E 135°12'0 0.0
2017-Nov-12 19:29N 34°41' E 135°12'0 0.0
2017-Nov-12 18:53N 34°41' E 135°12'0 0.0
2017-Nov-12 18:29N 34°41' E 135°12'0 0.0
2017-Nov-12 17:59N 34°41' E 135°12'0 0.0
2017-Nov-12 17:29N 34°41' E 135°12'0 0.0
2017-Nov-12 16:53N 34°41' E 135°12'0 0.0
2017-Nov-12 16:29N 34°41' E 135°12'0 0.0
2017-Nov-12 15:59N 34°41' E 135°12'0 0.0
2017-Nov-12 15:29N 34°41' E 135°12'0 0.0
2017-Nov-12 14:59N 34°41' E 135°12'0 0.0
2017-Nov-12 14:29N 34°41' E 135°12'0 0.0
2017-Nov-12 13:59N 34°41' E 135°12'0 0.0
2017-Nov-12 13:29N 34°41' E 135°12'0 0.0
2017-Nov-12 12:59N 34°41' E 135°12'0 0.0
2017-Nov-12 12:23N 34°41' E 135°12'0 0.0
2017-Nov-12 11:59N 34°41' E 135°12'0 0.0
2017-Nov-12 11:29N 34°41' E 135°12'0 0.0
2017-Nov-12 10:47N 34°41' E 135°12'0 0.0
2017-Nov-12 10:17N 34°41' E 135°12'0 0.0
2017-Nov-12 09:59N 34°41' E 135°12'0 0.0
2017-Nov-12 09:29N 34°41' E 135°12'0 0.0
2017-Nov-12 08:59N 34°41' E 135°12'0 0.0
2017-Nov-12 08:29N 34°41' E 135°12'0 0.0
2017-Nov-12 07:53N 34°41' E 135°12'0 0.0
2017-Nov-12 07:29N 34°41' E 135°12'0 0.0
2017-Nov-12 06:59N 34°41' E 135°12'0 0.0
2017-Nov-12 06:29N 34°41' E 135°12'0 0.0
2017-Nov-12 05:59N 34°41' E 135°12'0 0.0
2017-Nov-12 05:23N 34°41' E 135°12'0 0.0
2017-Nov-12 04:53N 34°41' E 135°12'0 0.0
2017-Nov-12 04:29N 34°41' E 135°12'0 0.0
2017-Nov-12 03:59N 34°41' E 135°12'0 0.0
2017-Nov-12 03:29N 34°41' E 135°12'0 0.0
2017-Nov-12 02:53N 34°41' E 135°12'0 0.5
2017-Nov-12 02:30N 34°41' E 135°12'4 7.3
2017-Nov-12 02:00N 34°38' E 135°14'5 9.2
2017-Nov-12 01:30N 34°42' E 135°15'0 0.1
2017-Nov-12 01:00N 34°42' E 135°15'0 0.0
2017-Nov-12 00:30N 34°42' E 135°15'0 0.0
2017-Nov-12 00:00N 34°42' E 135°15'0 0.0
2017-Nov-11 23:30N 34°42' E 135°15'0 0.0
2017-Nov-11 23:00N 34°42' E 135°15'0 0.0
2017-Nov-11 22:30N 34°42' E 135°15'0 0.0
2017-Nov-11 22:00N 34°42' E 135°15'0 0.0
2017-Nov-11 21:30N 34°42' E 135°15'0 0.0
2017-Nov-11 21:00N 34°42' E 135°15'0 0.0
2017-Nov-11 20:30N 34°42' E 135°15'0 0.0
2017-Nov-11 20:00N 34°42' E 135°15'0 0.0
2017-Nov-11 19:30N 34°42' E 135°15'0 0.0
2017-Nov-11 18:48N 34°42' E 135°15'0 0.0
2017-Nov-11 18:30N 34°42' E 135°15'0 0.0
2017-Nov-11 18:00N 34°42' E 135°15'0 0.0
2017-Nov-11 17:30N 34°42' E 135°15'0 0.0
2017-Nov-11 17:00N 34°42' E 135°15'0 0.0
2017-Nov-11 16:24N 34°42' E 135°15'0 0.0
2017-Nov-11 16:00N 34°42' E 135°15'0 0.0
2017-Nov-11 15:30N 34°42' E 135°15'0 0.0
2017-Nov-11 15:00N 34°42' E 135°15'0 0.0
2017-Nov-11 14:30N 34°42' E 135°15'0 0.0
2017-Nov-11 14:00N 34°42' E 135°15'0 0.0
2017-Nov-11 13:30N 34°42' E 135°15'0 0.0
2017-Nov-11 13:00N 34°42' E 135°15'0 0.0
2017-Nov-11 12:30N 34°42' E 135°15'0 0.5
2017-Nov-11 12:00N 34°42' E 135°15'0 0.9
2017-Nov-11 11:30N 34°42' E 135°15'0 0.1
2017-Nov-11 11:00N 34°42' E 135°15'0 0.1
2017-Nov-11 10:30N 34°42' E 135°15'0 0.0
2017-Nov-11 10:00N 34°42' E 135°15'0 0.0
2017-Nov-11 09:30N 34°42' E 135°15'0 0.0
2017-Nov-11 09:00N 34°42' E 135°15'3 6.0
2017-Nov-11 08:29N 34°39' E 135°16'510.1
2017-Nov-11 08:00N 34°36' E 135°11'511.0
2017-Nov-11 07:30N 34°35' E 135°04'810.0
2017-Nov-11 06:43N 34°36' E 134°55'410.2
2017-Nov-11 06:21N 34°39' E 134°51'5 0.3
2017-Nov-10 16:33N 34°42' E 134°47'1 4.7
2017-Nov-10 16:18N 34°41' E 134°48'412.3
2017-Nov-10 15:59N 34°38' E 134°52'812.3
2017-Nov-10 15:20N 34°37' E 135°01'411.3
2017-Nov-10 15:00N 34°36' E 135°06'611.7
2017-Nov-10 14:30N 34°37' E 135°13'4 8.7
2017-Nov-10 14:00N 34°41' E 135°15'1 1.3
2017-Nov-10 13:20N 34°42' E 135°15'0 0.0
2017-Nov-10 12:56N 34°42' E 135°15'0 0.0
2017-Nov-10 12:26N 34°42' E 135°15'0 0.0
2017-Nov-10 11:56N 34°42' E 135°15'0 0.0
2017-Nov-10 11:26N 34°42' E 135°15'0 0.0
2017-Nov-10 10:56N 34°42' E 135°15'0 0.0
2017-Nov-10 10:20N 34°42' E 135°15'0 0.0
2017-Nov-10 09:56N 34°42' E 135°15'0 0.0
2017-Nov-10 09:26N 34°42' E 135°15'0 0.0
2017-Nov-10 08:56N 34°42' E 135°15'0 0.0
2017-Nov-10 08:02N 34°42' E 135°15'0 0.0
2017-Nov-10 07:56N 34°42' E 135°15'0 0.0
2017-Nov-10 07:20N 34°42' E 135°15'0 0.0
2017-Nov-10 06:56N 34°42' E 135°15'0 0.0
2017-Nov-10 06:26N 34°42' E 135°15'0 0.0
2017-Nov-10 05:56N 34°42' E 135°15'0 0.0
2017-Nov-10 05:26N 34°42' E 135°15'0 0.0
2017-Nov-10 04:50N 34°42' E 135°15'0 0.0
2017-Nov-10 04:20N 34°42' E 135°15'0 0.0
2017-Nov-10 03:20N 34°42' E 135°15'0 0.0
2017-Nov-10 02:56N 34°42' E 135°15'0 0.0
2017-Nov-10 02:26N 34°42' E 135°15'0 0.0
2017-Nov-10 01:56N 34°42' E 135°15'0 0.0
2017-Nov-10 01:26N 34°42' E 135°15'0 0.0
2017-Nov-10 00:56N 34°42' E 135°15'  
Track history (hours):
 
Tides and Currents Weather Stations Pressure Air Temp Water Temp Dewpoint Dewpoint Depression Visibility Wind Speed Wind Dir Waves Ship Positions

Hishou Maru

Last reported at 2017-Nov-20 00:30 UTC. Time now 2017-Nov-21 23:11 UTC.
Position N 34°36' E 135°11'.

Length 76 m; draft 4.1 m.

Type: Cargo ship. MMSI: 431600889.

Date/timePositionNaut miles runAvg speedWind from/ knotsBaromVisibWave heightAir tempDewpointWater temp
2017-Nov-20 00:30N 34°36' E 135°11'611.1
2017-Nov-20 00:00N 34°35' E 135°04'4 7.5
2017-Nov-19 23:30N 34°37' E 135°01'4 8.0
2017-Nov-19 22:59N 34°36' E 134°56'5 8.9
2017-Nov-19 22:27N 34°39' E 134°51'3 0.2
2017-Nov-19 08:47N 34°37' E 134°54'310.9
2017-Nov-19 08:30N 34°37' E 134°57'510.4
2017-Nov-19 08:00N 34°36' E 135°03'611.3
2017-Nov-19 07:30N 34°37' E 135°10'5 9.7
2017-Nov-19 07:01N 34°40' E 135°15'3 4.7
2017-Nov-19 06:28N 34°42' E 135°15'0 0.0
2017-Nov-19 05:52N 34°42' E 135°15'0 0.0
2017-Nov-19 05:28N 34°42' E 135°15'0 0.0
2017-Nov-19 04:58N 34°42' E 135°15'0 0.0
2017-Nov-19 04:28N 34°42' E 135°15'0 0.0
2017-Nov-19 03:58N 34°42' E 135°15'0 0.0
2017-Nov-19 03:28N 34°42' E 135°15'0 0.0
2017-Nov-19 02:58N 34°42' E 135°15'0 0.0
2017-Nov-19 02:28N 34°42' E 135°15'0 0.0
2017-Nov-19 01:58N 34°42' E 135°15'0 0.0
2017-Nov-19 01:28N 34°42' E 135°15'0 0.0
2017-Nov-19 00:58N 34°42' E 135°15'0 0.0
2017-Nov-19 00:28N 34°42' E 135°15'0 0.0
2017-Nov-18 23:58N 34°42' E 135°15'0 0.0
2017-Nov-18 23:28N 34°42' E 135°15'0 0.0
2017-Nov-18 22:58N 34°42' E 135°15'0 0.7
2017-Nov-18 22:31N 34°42' E 135°15'0 0.6
2017-Nov-18 21:55N 34°42' E 135°15'0 0.0
2017-Nov-18 21:25N 34°42' E 135°15'0 0.1
2017-Nov-18 20:55N 34°42' E 135°15'0 0.1
2017-Nov-18 20:25N 34°42' E 135°15'0 0.0
2017-Nov-18 19:55N 34°42' E 135°15'0 0.0
2017-Nov-18 19:25N 34°42' E 135°15'0 0.0
2017-Nov-18 18:55N 34°42' E 135°15'0 0.0
2017-Nov-18 18:25N 34°42' E 135°15'0 0.0
2017-Nov-18 17:55N 34°42' E 135°15'0 0.0
2017-Nov-18 17:25N 34°42' E 135°15'0 0.0
2017-Nov-18 16:55N 34°42' E 135°15'0 0.1
2017-Nov-18 16:25N 34°42' E 135°15'0 0.1
2017-Nov-18 15:55N 34°42' E 135°15'0 0.0
2017-Nov-18 15:19N 34°42' E 135°15'0 0.0
2017-Nov-18 14:55N 34°42' E 135°15'0 0.0
2017-Nov-18 14:19N 34°42' E 135°15'0 0.0
2017-Nov-18 13:55N 34°42' E 135°15'0 0.0
2017-Nov-18 13:19N 34°42' E 135°15'0 0.0
2017-Nov-18 12:49N 34°42' E 135°15'0 0.0
2017-Nov-18 12:25N 34°42' E 135°15'1 2.4
2017-Nov-18 12:00N 34°41' E 135°15'4 7.7
2017-Nov-18 11:30N 34°37' E 135°14'510.5
2017-Nov-18 11:00N 34°36' E 135°07'5 9.3
2017-Nov-18 10:28N 34°37' E 135°02'5 9.0
2017-Nov-18 09:58N 34°36' E 134°56'710.0
2017-Nov-18 09:17N 34°40' E 134°49'1 0.0
2017-Nov-16 21:50N 34°40' E 134°48'612.8
2017-Nov-16 21:22N 34°37' E 134°54'513.9
2017-Nov-16 20:59N 34°38' E 135°00'612.4
2017-Nov-16 20:30N 34°37' E 135°08'611.7
2017-Nov-16 20:00N 34°37' E 135°15'510.0
2017-Nov-16 19:30N 34°42' E 135°15'0 0.1
2017-Nov-16 18:56N 34°42' E 135°15'0 0.0
2017-Nov-16 18:26N 34°42' E 135°15'0 0.0
2017-Nov-16 17:56N 34°42' E 135°15'0 0.0
2017-Nov-16 17:26N 34°42' E 135°15'0 0.0
2017-Nov-16 16:56N 34°42' E 135°15'0 0.0
2017-Nov-16 16:26N 34°42' E 135°15'0 0.0
2017-Nov-16 15:56N 34°42' E 135°15'0 0.0
2017-Nov-16 15:20N 34°42' E 135°15'0 0.0
2017-Nov-16 14:56N 34°42' E 135°15'0 0.0
2017-Nov-16 14:26N 34°42' E 135°15'0 0.0
2017-Nov-16 13:56N 34°42' E 135°15'0 0.0
2017-Nov-16 13:26N 34°42' E 135°15'0 0.0
2017-Nov-16 12:56N 34°42' E 135°15'0 0.0
2017-Nov-16 12:26N 34°42' E 135°15'0 0.0
2017-Nov-16 11:50N 34°42' E 135°15'0 0.0
2017-Nov-16 11:20N 34°42' E 135°15'0 0.0
2017-Nov-16 10:56N 34°42' E 135°15'0 0.0
2017-Nov-16 10:26N 34°42' E 135°15'0 0.0
2017-Nov-16 09:44N 34°42' E 135°15'0 0.0
2017-Nov-16 09:26N 34°42' E 135°15'0 0.0
2017-Nov-16 08:56N 34°42' E 135°15'0 0.0
2017-Nov-16 08:26N 34°42' E 135°15'0 0.0
2017-Nov-16 07:44N 34°42' E 135°15'0 0.0
2017-Nov-16 07:26N 34°42' E 135°15'0 0.0
2017-Nov-16 06:59N 34°42' E 135°15'0 0.8
2017-Nov-16 06:30N 34°42' E 135°15'1 1.3
2017-Nov-16 06:00N 34°41' E 135°15'4 8.4
2017-Nov-16 05:29N 34°37' E 135°14'612.0
2017-Nov-16 05:00N 34°35' E 135°07'913.3
2017-Nov-16 04:18N 34°36' E 134°56'613.3
2017-Nov-16 03:50N 34°40' E 134°50'2 0.1
2017-Nov-14 23:09N 34°41' E 134°48'0 0.2
2017-Nov-14 22:57N 34°41' E 134°48'0 0.1
2017-Nov-14 22:21N 34°41' E 134°48'0 0.0
2017-Nov-14 21:57N 34°41' E 134°48'0 0.0
2017-Nov-14 20:15N 34°41' E 134°48'0 0.0
2017-Nov-14 19:51N 34°41' E 134°48'0 0.0
2017-Nov-14 19:27N 34°41' E 134°48'0 0.0
2017-Nov-14 18:57N 34°41' E 134°48'0 0.1
2017-Nov-14 18:21N 34°41' E 134°48'6 9.6
2017-Nov-14 17:43N 34°37' E 134°54'311.7
2017-Nov-14 17:29N 34°38' E 134°57'510.3
2017-Nov-14 17:00N 34°37' E 135°03'611.6
2017-Nov-14 16:30N 34°37' E 135°10'510.1
2017-Nov-14 16:00N 34°39' E 135°15'3 4.0
2017-Nov-14 15:14N 34°42' E 135°15'0 0.0
2017-Nov-14 14:56N 34°42' E 135°15'0 0.0
2017-Nov-14 14:14N 34°42' E 135°15'0 0.0
2017-Nov-14 13:56N 34°42' E 135°15'0 0.0
2017-Nov-14 13:26N 34°42' E 135°15'0 0.0
2017-Nov-14 12:56N 34°42' E 135°15'0 0.0
2017-Nov-14 12:20N 34°42' E 135°15'0 0.0
2017-Nov-14 11:20N 34°42' E 135°15'0 0.0
2017-Nov-14 10:56N 34°42' E 135°15'0 0.0
2017-Nov-14 10:14N 34°42' E 135°15'0 0.0
2017-Nov-14 09:56N 34°42' E 135°15'0 0.0
2017-Nov-14 09:20N 34°42' E 135°15'0 0.0
2017-Nov-14 08:56N 34°42' E 135°15'0 0.0
2017-Nov-14 08:20N 34°42' E 135°15'0 0.0
2017-Nov-14 07:56N 34°42' E 135°15'0 0.0
2017-Nov-14 07:26N 34°42' E 135°15'0 0.0
2017-Nov-14 06:50N 34°42' E 135°15'0 0.0
2017-Nov-14 06:26N 34°42' E 135°15'3 5.9
2017-Nov-14 06:00N 34°40' E 135°15'5 9.5
2017-Nov-14 05:30N 34°36' E 135°12'611.6
2017-Nov-14 05:00N 34°35' E 135°05'611.6
2017-Nov-14 04:27N 34°37' E 134°57'711.8
2017-Nov-14 03:51N 34°40' E 134°50'6 0.2
2017-Nov-12 23:40N 34°37' E 134°57'411.8
2017-Nov-12 23:22N 34°37' E 135°01'410.9
2017-Nov-12 23:00N 34°37' E 135°06'611.6
2017-Nov-12 22:30N 34°40' E 135°12'1 1.4
2017-Nov-12 21:59N 34°41' E 135°12'0 0.0
2017-Nov-12 21:29N 34°41' E 135°12'0 0.0
2017-Nov-12 20:59N 34°41' E 135°12'0 0.0
2017-Nov-12 20:29N 34°41' E 135°12'0 0.0
2017-Nov-12 19:59N 34°41' E 135°12'0 0.0
2017-Nov-12 19:29N 34°41' E 135°12'0 0.0
2017-Nov-12 18:53N 34°41' E 135°12'0 0.0
2017-Nov-12 18:29N 34°41' E 135°12'0 0.0
2017-Nov-12 17:59N 34°41' E 135°12'0 0.0
2017-Nov-12 17:29N 34°41' E 135°12'0 0.0
2017-Nov-12 16:53N 34°41' E 135°12'0 0.0
2017-Nov-12 16:29N 34°41' E 135°12'0 0.0
2017-Nov-12 15:59N 34°41' E 135°12'0 0.0
2017-Nov-12 15:29N 34°41' E 135°12'0 0.0
2017-Nov-12 14:59N 34°41' E 135°12'0 0.0
2017-Nov-12 14:29N 34°41' E 135°12'0 0.0
2017-Nov-12 13:59N 34°41' E 135°12'0 0.0
2017-Nov-12 13:29N 34°41' E 135°12'0 0.0
2017-Nov-12 12:59N 34°41' E 135°12'0 0.0
2017-Nov-12 12:23N 34°41' E 135°12'0 0.0
2017-Nov-12 11:59N 34°41' E 135°12'0 0.0
2017-Nov-12 11:29N 34°41' E 135°12'0 0.0
2017-Nov-12 10:47N 34°41' E 135°12'0 0.0
2017-Nov-12 10:17N 34°41' E 135°12'0 0.0
2017-Nov-12 09:59N 34°41' E 135°12'0 0.0
2017-Nov-12 09:29N 34°41' E 135°12'0 0.0
2017-Nov-12 08:59N 34°41' E 135°12'0 0.0
2017-Nov-12 08:29N 34°41' E 135°12'0 0.0
2017-Nov-12 07:53N 34°41' E 135°12'0 0.0
2017-Nov-12 07:29N 34°41' E 135°12'0 0.0
2017-Nov-12 06:59N 34°41' E 135°12'0 0.0
2017-Nov-12 06:29N 34°41' E 135°12'0 0.0
2017-Nov-12 05:59N 34°41' E 135°12'0 0.0
2017-Nov-12 05:23N 34°41' E 135°12'0 0.0
2017-Nov-12 04:53N 34°41' E 135°12'0 0.0
2017-Nov-12 04:29N 34°41' E 135°12'0 0.0
2017-Nov-12 03:59N 34°41' E 135°12'0 0.0
2017-Nov-12 03:29N 34°41' E 135°12'0 0.0
2017-Nov-12 02:53N 34°41' E 135°12'0 0.5
2017-Nov-12 02:30N 34°41' E 135°12'4 7.3
2017-Nov-12 02:00N 34°38' E 135°14'5 9.2
2017-Nov-12 01:30N 34°42' E 135°15'0 0.1
2017-Nov-12 01:00N 34°42' E 135°15'0 0.0
2017-Nov-12 00:30N 34°42' E 135°15'0 0.0
2017-Nov-12 00:00N 34°42' E 135°15'0 0.0
2017-Nov-11 23:30N 34°42' E 135°15'0 0.0
2017-Nov-11 23:00N 34°42' E 135°15'0 0.0
2017-Nov-11 22:30N 34°42' E 135°15'0 0.0
2017-Nov-11 22:00N 34°42' E 135°15'0 0.0
2017-Nov-11 21:30N 34°42' E 135°15'0 0.0
2017-Nov-11 21:00N 34°42' E 135°15'0 0.0
2017-Nov-11 20:30N 34°42' E 135°15'0 0.0
2017-Nov-11 20:00N 34°42' E 135°15'0 0.0
2017-Nov-11 19:30N 34°42' E 135°15'0 0.0
2017-Nov-11 18:48N 34°42' E 135°15'0 0.0
2017-Nov-11 18:30N 34°42' E 135°15'0 0.0
2017-Nov-11 18:00N 34°42' E 135°15'0 0.0
2017-Nov-11 17:30N 34°42' E 135°15'0 0.0
2017-Nov-11 17:00N 34°42' E 135°15'0 0.0
2017-Nov-11 16:24N 34°42' E 135°15'0 0.0
2017-Nov-11 16:00N 34°42' E 135°15'0 0.0
2017-Nov-11 15:30N 34°42' E 135°15'0 0.0
2017-Nov-11 15:00N 34°42' E 135°15'0 0.0
2017-Nov-11 14:30N 34°42' E 135°15'0 0.0
2017-Nov-11 14:00N 34°42' E 135°15'0 0.0
2017-Nov-11 13:30N 34°42' E 135°15'0 0.0
2017-Nov-11 13:00N 34°42' E 135°15'0 0.0
2017-Nov-11 12:30N 34°42' E 135°15'0 0.5
2017-Nov-11 12:00N 34°42' E 135°15'0 0.9
2017-Nov-11 11:30N 34°42' E 135°15'0 0.1
2017-Nov-11 11:00N 34°42' E 135°15'0 0.1
2017-Nov-11 10:30N 34°42' E 135°15'0 0.0
2017-Nov-11 10:00N 34°42' E 135°15'0 0.0
2017-Nov-11 09:30N 34°42' E 135°15'0 0.0
2017-Nov-11 09:00N 34°42' E 135°15'3 6.0
2017-Nov-11 08:29N 34°39' E 135°16'510.1
2017-Nov-11 08:00N 34°36' E 135°11'511.0
2017-Nov-11 07:30N 34°35' E 135°04'810.0
2017-Nov-11 06:43N 34°36' E 134°55'410.2
2017-Nov-11 06:21N 34°39' E 134°51'5 0.3
2017-Nov-10 16:33N 34°42' E 134°47'1 4.7
2017-Nov-10 16:18N 34°41' E 134°48'412.3
2017-Nov-10 15:59N 34°38' E 134°52'812.3
2017-Nov-10 15:20N 34°37' E 135°01'411.3
2017-Nov-10 15:00N 34°36' E 135°06'611.7
2017-Nov-10 14:30N 34°37' E 135°13'4 8.7
2017-Nov-10 14:00N 34°41' E 135°15'1 1.3
2017-Nov-10 13:20N 34°42' E 135°15'0 0.0
2017-Nov-10 12:56N 34°42' E 135°15'0 0.0
2017-Nov-10 12:26N 34°42' E 135°15'0 0.0
2017-Nov-10 11:56N 34°42' E 135°15'0 0.0
2017-Nov-10 11:26N 34°42' E 135°15'0 0.0
2017-Nov-10 10:56N 34°42' E 135°15'0 0.0
2017-Nov-10 10:20N 34°42' E 135°15'0 0.0
2017-Nov-10 09:56N 34°42' E 135°15'0 0.0
2017-Nov-10 09:26N 34°42' E 135°15'0 0.0
2017-Nov-10 08:56N 34°42' E 135°15'0 0.0
2017-Nov-10 08:02N 34°42' E 135°15'0 0.0
2017-Nov-10 07:56N 34°42' E 135°15'0 0.0
2017-Nov-10 07:20N 34°42' E 135°15'0 0.0
2017-Nov-10 06:56N 34°42' E 135°15'0 0.0
2017-Nov-10 06:26N 34°42' E 135°15'0 0.0
2017-Nov-10 05:56N 34°42' E 135°15'0 0.0
2017-Nov-10 05:26N 34°42' E 135°15'0 0.0
2017-Nov-10 04:50N 34°42' E 135°15'0 0.0
2017-Nov-10 04:20N 34°42' E 135°15'0 0.0
2017-Nov-10 03:20N 34°42' E 135°15'0 0.0
2017-Nov-10 02:56N 34°42' E 135°15'0 0.0
2017-Nov-10 02:26N 34°42' E 135°15'0 0.0
2017-Nov-10 01:56N 34°42' E 135°15'0 0.0
2017-Nov-10 01:26N 34°42' E 135°15'0 0.0
2017-Nov-10 00:56N 34°42' E 135°15'  

Dump ship's entire track history